Time;durP1;ratioP1;P1;durP2;ratioP2;P2;SDS_P1;SDS_P2;PMS_P1;PMS_P2;Temp;Humidity;BMP_temperature;BMP_pressure;BME280_temperature;BME280_humidity;BME280_pressure;Samples;Min_cycle;Max_cycle;Signal;HPM_P1;HPM_P2
2022/10/06 05:00:24;;;;;;;3.53;2.67;;;15.20;97.20;;;;;;1694820;29;20219;-73
2022/10/06 05:01:16;;;;;;;6.25;2.80;;;15.20;97.20;;;;;;1695052;29;20223;-74
2022/10/06 05:02:08;;;;;;;4.35;2.70;;;15.20;97.20;;;;;;1695011;29;20215;-74
2022/10/06 05:02:58;;;;;;;4.20;2.90;;;15.20;97.20;;;;;;1694964;29;20218;-73
2022/10/06 05:03:52;;;;;;;2.50;2.30;;;15.20;97.20;;;;;;1695158;29;20234;-73
2022/10/06 05:04:42;;;;;;;4.50;3.10;;;15.20;97.20;;;;;;1694960;29;20215;-74
2022/10/06 05:05:34;;;;;;;7.37;3.57;;;15.20;97.20;;;;;;1695049;29;20212;-74
2022/10/06 05:06:26;;;;;;;8.80;2.85;;;15.20;97.20;;;;;;1694629;29;20204;-73
2022/10/06 05:07:18;;;;;;;3.20;2.90;;;15.20;97.20;;;;;;1694605;29;20246;-74
2022/10/06 05:08:09;;;;;;;5.95;2.72;;;15.10;97.20;;;;;;1695078;29;20210;-74
2022/10/06 05:09:03;;;;;;;5.70;3.00;;;15.20;97.20;;;;;;1694625;29;20206;-74
2022/10/06 05:09:54;;;;;;;3.33;2.95;;;15.20;97.20;;;;;;1694799;29;20219;-74
2022/10/06 05:10:44;;;;;;;3.30;2.40;;;15.10;97.20;;;;;;1695098;29;20238;-74
2022/10/06 05:11:36;;;;;;;4.17;2.77;;;15.10;97.20;;;;;;1694923;29;20208;-74
2022/10/06 05:12:30;;;;;;;4.00;3.20;;;15.10;97.20;;;;;;1694957;29;20263;-73
2022/10/06 05:13:21;;;;;;;4.20;3.05;;;15.10;97.20;;;;;;1695089;29;20659;-74
2022/10/06 05:14:12;;;;;;;3.35;3.00;;;15.10;97.20;;;;;;1695288;29;20243;-74
2022/10/06 05:15:08;;;;;;;2.80;2.60;;;15.10;97.20;;;;;;1695047;29;20214;-73
2022/10/06 05:16:00;;;;;;;3.05;2.85;;;15.10;97.20;;;;;;1695821;29;20358;-73
2022/10/06 05:16:52;;;;;;;3.10;2.72;;;15.10;97.20;;;;;;1695440;29;20223;-74
2022/10/06 05:17:42;;;;;;;5.22;2.67;;;15.10;97.20;;;;;;1695209;29;20702;-74
2022/10/06 05:18:35;;;;;;;3.67;3.03;;;15.10;97.20;;;;;;1695457;29;20216;-73
2022/10/06 05:19:26;;;;;;;3.92;2.75;;;15.10;97.20;;;;;;1694778;29;20207;-73
2022/10/06 05:20:21;;;;;;;3.30;2.93;;;15.10;97.20;;;;;;1694234;29;20198;-74
2022/10/06 05:21:14;;;;;;;3.80;2.60;;;15.10;97.20;;;;;;1694914;29;20294;-74
2022/10/06 05:22:05;;;;;;;6.43;2.95;;;15.10;97.20;;;;;;1694752;29;20281;-74
2022/10/06 05:22:56;;;;;;;3.78;3.00;;;15.10;97.20;;;;;;1694978;29;20694;-74
2022/10/06 05:23:48;;;;;;;4.23;3.67;;;15.10;97.20;;;;;;1694934;29;20618;-73
2022/10/06 05:24:39;;;;;;;3.85;2.40;;;15.10;97.20;;;;;;1694975;29;20215;-73
2022/10/06 05:25:30;;;;;;;4.57;2.90;;;15.10;97.20;;;;;;1694878;29;20203;-73
2022/10/06 05:26:23;;;;;;;3.65;2.60;;;15.10;97.20;;;;;;1694955;29;20263;-73
2022/10/06 05:27:15;;;;;;;4.07;3.15;;;15.10;97.20;;;;;;1694857;29;20204;-73
2022/10/06 05:28:06;;;;;;;2.60;2.40;;;15.10;97.20;;;;;;1694866;29;20208;-73
2022/10/06 05:28:58;;;;;;;3.10;2.60;;;15.10;97.20;;;;;;1695016;29;20721;-73
2022/10/06 05:29:49;;;;;;;6.13;2.70;;;15.10;97.20;;;;;;1694566;29;20212;-73
2022/10/06 05:30:42;;;;;;;3.00;2.80;;;15.10;97.20;;;;;;1694673;29;20237;-73
2022/10/06 05:31:37;;;;;;;3.35;2.85;;;15.10;97.20;;;;;;1694784;29;20208;-73
2022/10/06 05:32:29;;;;;;;3.70;2.78;;;15.10;97.20;;;;;;1694867;29;20203;-73
2022/10/06 05:33:19;;;;;;;3.25;2.35;;;15.10;97.20;;;;;;1694942;29;20286;-73
2022/10/06 05:34:11;;;;;;;5.13;3.23;;;15.10;97.20;;;;;;1694548;29;20196;-73
2022/10/06 05:35:03;;;;;;;4.15;2.90;;;15.10;97.20;;;;;;1694912;29;20294;-73
2022/10/06 05:35:56;;;;;;;3.20;2.90;;;15.10;97.20;;;;;;1694868;29;20208;-73
2022/10/06 05:36:47;;;;;;;3.63;2.92;;;15.20;97.20;;;;;;1694747;29;21292;-73
2022/10/06 05:37:39;;;;;;;5.40;2.80;;;15.10;97.20;;;;;;1694736;29;20204;-73
2022/10/06 05:38:30;;;;;;;6.03;3.65;;;15.10;97.20;;;;;;1694315;29;20322;-75
2022/10/06 05:39:21;;;;;;;4.60;2.80;;;15.20;97.20;;;;;;1694872;29;20207;-73
2022/10/06 05:40:12;;;;;;;3.85;3.17;;;15.10;97.20;;;;;;1694478;29;20459;-73
2022/10/06 05:41:06;;;;;;;3.50;2.93;;;15.20;97.20;;;;;;1694748;29;20208;-73
2022/10/06 05:41:57;;;;;;;3.55;2.83;;;15.20;97.20;;;;;;1694837;29;20455;-73
2022/10/06 05:42:48;;;;;;;4.03;2.93;;;15.20;97.20;;;;;;1694783;29;20208;-73
2022/10/06 05:43:40;;;;;;;5.82;3.10;;;15.20;97.20;;;;;;1694839;29;20573;-73
2022/10/06 05:44:32;;;;;;;5.13;2.63;;;15.20;97.20;;;;;;1694854;29;20196;-73
2022/10/06 05:45:23;;;;;;;4.47;2.50;;;15.20;97.20;;;;;;1694813;29;20355;-73
2022/10/06 05:46:19;;;;;;;3.07;2.77;;;15.20;97.20;;;;;;1694885;29;20207;-73
2022/10/06 05:47:09;;;;;;;3.30;2.53;;;15.20;97.20;;;;;;1694740;29;20216;-73
2022/10/06 05:48:01;;;;;;;4.57;2.80;;;15.20;97.20;;;;;;1694850;29;20216;-73
2022/10/06 05:48:54;;;;;;;5.55;2.80;;;15.20;97.20;;;;;;1694846;29;20211;-73
2022/10/06 05:49:46;;;;;;;3.22;2.88;;;15.20;97.20;;;;;;1694521;29;20200;-73
2022/10/06 05:50:36;;;;;;;5.53;2.60;;;15.20;97.20;;;;;;1694469;29;20219;-73
2022/10/06 05:51:29;;;;;;;3.30;2.90;;;15.20;97.20;;;;;;1694607;29;20243;-73
2022/10/06 05:52:20;;;;;;;5.35;2.70;;;15.20;97.20;;;;;;1694825;29;20667;-73
2022/10/06 05:53:12;;;;;;;4.67;3.00;;;15.20;97.20;;;;;;1694566;29;20215;-73
2022/10/06 05:54:03;;;;;;;3.40;3.10;;;15.20;97.20;;;;;;1694712;29;20216;-73
2022/10/06 05:54:54;;;;;;;4.30;2.87;;;15.20;97.20;;;;;;1694740;29;20208;-73
2022/10/06 05:55:45;;;;;;;5.03;2.60;;;15.20;97.20;;;;;;1694740;29;20803;-73
2022/10/06 05:56:38;;;;;;;3.80;2.50;;;15.20;97.20;;;;;;1694802;29;20388;-73
2022/10/06 05:57:29;;;;;;;8.30;3.28;;;15.20;97.20;;;;;;1694696;29;20208;-73
2022/10/06 05:58:20;;;;;;;4.73;2.97;;;15.20;97.20;;;;;;1694706;29;20235;-73
2022/10/06 05:59:11;;;;;;;3.30;3.00;;;15.20;97.20;;;;;;1694654;29;20203;-73
2022/10/06 06:00:03;;;;;;;4.57;2.70;;;15.30;97.20;;;;;;1694507;29;20210;-73
2022/10/06 06:00:54;;;;;;;4.47;3.05;;;15.20;97.20;;;;;;1694517;29;20730;-73
2022/10/06 06:01:47;;;;;;;7.43;3.23;;;15.30;97.20;;;;;;1694712;29;20571;-73
2022/10/06 06:02:38;;;;;;;3.58;2.95;;;15.30;97.20;;;;;;1694807;29;20701;-74
2022/10/06 06:03:33;;;;;;;4.27;2.70;;;15.30;97.20;;;;;;1694667;29;20667;-73
2022/10/06 06:04:26;;;;;;;2.90;2.40;;;15.30;97.20;;;;;;1694736;29;20208;-74
2022/10/06 06:05:18;;;;;;;5.05;3.08;;;15.30;97.20;;;;;;1694730;29;20196;-74
2022/10/06 06:06:20;;;;;;;6.43;3.65;;;15.30;97.20;;;;;;1694577;29;20211;-74
2022/10/06 06:07:11;;;;;;;4.72;3.08;;;15.30;97.20;;;;;;1694265;29;20686;-74
2022/10/06 06:08:02;;;;;;;4.97;3.40;;;15.30;97.20;;;;;;1694516;29;20219;-74
2022/10/06 06:08:56;;;;;;;4.73;3.27;;;15.30;97.20;;;;;;1694676;29;20214;-74
2022/10/06 06:09:46;;;;;;;4.40;3.28;;;15.30;97.20;;;;;;1694332;29;20204;-74
2022/10/06 06:10:38;;;;;;;4.10;3.20;;;15.30;97.20;;;;;;1694614;29;20216;-74
2022/10/06 06:11:30;;;;;;;4.80;3.50;;;15.30;97.20;;;;;;1694526;29;20207;-74
2022/10/06 06:12:22;;;;;;;4.88;3.13;;;15.30;97.20;;;;;;1694660;29;20200;-73
2022/10/06 06:13:18;;;;;;;4.40;3.28;;;15.30;97.20;;;;;;1694724;29;20250;-73
2022/10/06 06:14:12;;;;;;;3.95;3.03;;;15.40;97.20;;;;;;1694671;29;20547;-73
2022/10/06 06:16:14;;;;;;;4.50;2.63;;;15.40;97.20;;;;;;1694609;29;20275;-73
2022/10/06 06:17:07;;;;;;;4.68;3.28;;;15.40;97.20;;;;;;1694553;29;20204;-73
2022/10/06 06:18:00;;;;;;;3.42;3.13;;;15.40;97.20;;;;;;1694637;29;20212;-74
2022/10/06 06:18:51;;;;;;;3.05;2.70;;;15.40;97.20;;;;;;1694601;29;20232;-74
2022/10/06 06:19:42;;;;;;;3.17;2.90;;;15.40;97.20;;;;;;1694563;29;20196;-73
2022/10/06 06:20:33;;;;;;;3.50;2.72;;;15.40;97.20;;;;;;1693827;29;20616;-73
2022/10/06 06:21:26;;;;;;;4.67;3.00;;;15.50;97.20;;;;;;1694411;29;20296;-74
2022/10/06 06:22:16;;;;;;;5.07;2.95;;;15.50;97.20;;;;;;1694418;29;20241;-73
2022/10/06 06:23:08;;;;;;;5.23;3.10;;;15.50;97.20;;;;;;1694538;29;20223;-74
2022/10/06 06:23:59;;;;;;;4.80;2.95;;;15.50;97.20;;;;;;1694582;29;20238;-73
2022/10/06 06:24:51;;;;;;;3.83;3.17;;;15.50;97.20;;;;;;1694574;29;20201;-73
2022/10/06 06:25:43;;;;;;;4.20;2.53;;;15.50;97.20;;;;;;1694529;29;20204;-73
2022/10/06 06:26:36;;;;;;;3.40;3.15;;;15.50;97.20;;;;;;1694544;29;20204;-73
2022/10/06 06:27:27;;;;;;;3.75;3.35;;;15.50;97.20;;;;;;1694475;29;20582;-73
2022/10/06 06:28:19;;;;;;;5.47;3.13;;;15.50;97.20;;;;;;1694580;29;20200;-73
2022/10/06 06:29:09;;;;;;;3.97;3.17;;;15.50;97.20;;;;;;1694510;29;20231;-73
2022/10/06 06:30:01;;;;;;;4.27;3.07;;;15.60;97.20;;;;;;1694343;29;20204;-73
2022/10/06 06:30:58;;;;;;;3.78;3.13;;;15.60;97.20;;;;;;1694305;29;20235;-73
2022/10/06 06:31:50;;;;;;;4.05;3.35;;;15.60;97.20;;;;;;1694524;29;20204;-74
2022/10/06 06:32:42;;;;;;;6.55;3.13;;;15.60;97.20;;;;;;1694537;29;20208;-74
2022/10/06 06:33:33;;;;;;;3.72;3.15;;;15.60;97.20;;;;;;1694555;29;20630;-74
2022/10/06 06:34:25;;;;;;;5.45;3.10;;;15.60;97.20;;;;;;1694197;29;20192;-73
2022/10/06 06:35:16;;;;;;;3.83;3.53;;;15.60;97.20;;;;;;1694593;29;20263;-73
2022/10/06 06:36:16;;;;;;;5.80;2.97;;;15.60;97.20;;;;;;1694470;29;20260;-73
2022/10/06 06:37:08;;;;;;;5.38;3.65;;;15.60;97.20;;;;;;1694381;29;20298;-73
2022/10/06 06:37:59;;;;;;;3.72;2.90;;;15.60;97.20;;;;;;1694530;29;20231;-73
2022/10/06 06:38:52;;;;;;;4.07;3.17;;;15.70;97.20;;;;;;1694331;29;20223;-74
2022/10/06 06:39:43;;;;;;;3.30;3.00;;;15.70;97.20;;;;;;1694183;29;20368;-74
2022/10/06 06:40:38;;;;;;;6.85;3.03;;;15.70;97.20;;;;;;1693928;29;20226;-74
2022/10/06 06:41:32;;;;;;;7.93;3.40;;;15.70;97.20;;;;;;1694329;29;20239;-74
2022/10/06 06:42:23;;;;;;;5.05;3.75;;;15.70;97.20;;;;;;1694468;29;20204;-74
2022/10/06 06:43:14;;;;;;;4.50;2.73;;;15.70;97.20;;;;;;1694552;29;20208;-73
2022/10/06 06:44:07;;;;;;;3.47;3.17;;;15.70;97.20;;;;;;1694401;29;20204;-74
2022/10/06 06:44:58;;;;;;;4.28;2.80;;;15.70;97.20;;;;;;1694456;29;20200;-74
2022/10/06 06:45:49;;;;;;;3.40;3.10;;;15.70;97.20;;;;;;1694550;29;20231;-74
2022/10/06 06:46:43;;;;;;;3.13;2.90;;;15.70;97.20;;;;;;1694388;29;20196;-74
2022/10/06 06:47:34;;;;;;;4.00;3.20;;;15.80;97.20;;;;;;1694513;29;20204;-74
2022/10/06 06:48:27;;;;;;;4.90;3.37;;;15.80;97.20;;;;;;1694525;29;20283;-74
2022/10/06 06:49:19;;;;;;;3.20;2.90;;;15.80;97.20;;;;;;1694506;29;20619;-74
2022/10/06 06:50:12;;;;;;;4.75;3.45;;;15.80;97.20;;;;;;1693670;29;20713;-74
2022/10/06 06:51:04;;;;;;;5.68;3.15;;;15.80;97.20;;;;;;1694170;29;20215;-74
2022/10/06 06:51:55;;;;;;;4.53;3.33;;;15.80;97.20;;;;;;1694413;29;20730;-74
2022/10/06 06:52:46;;;;;;;4.80;3.22;;;15.90;97.20;;;;;;1694446;29;20208;-74
2022/10/06 06:53:38;;;;;;;3.47;3.10;;;15.90;97.20;;;;;;1694431;29;20204;-75
2022/10/06 06:54:29;;;;;;;7.40;3.50;;;15.90;97.20;;;;;;1694244;29;20200;-74
2022/10/06 06:55:21;;;;;;;5.03;3.07;;;15.90;97.20;;;;;;1694462;29;20200;-74
2022/10/06 06:56:12;;;;;;;5.90;3.30;;;15.90;97.20;;;;;;1694372;29;20455;-74
2022/10/06 06:57:03;;;;;;;3.73;2.90;;;15.90;97.20;;;;;;1694470;29;20196;-74
2022/10/06 06:57:54;;;;;;;5.05;3.63;;;15.90;97.20;;;;;;1694415;29;20225;-74
2022/10/06 06:58:47;;;;;;;3.73;3.43;;;15.90;97.20;;;;;;1694273;29;20250;-74
2022/10/06 06:59:38;;;;;;;5.70;3.20;;;15.90;97.20;;;;;;1694442;29;20571;-73
2022/10/06 07:00:30;;;;;;;4.90;3.37;;;15.90;97.20;;;;;;1693679;29;20560;-73
2022/10/06 07:01:21;;;;;;;4.68;3.45;;;15.90;97.20;;;;;;1694338;29;20230;-73
2022/10/06 07:02:13;;;;;;;7.97;4.00;;;15.90;97.20;;;;;;1694359;29;20204;-73
2022/10/06 07:03:04;;;;;;;6.22;3.92;;;15.90;97.20;;;;;;1694352;29;20290;-73
2022/10/06 07:03:58;;;;;;;5.47;4.07;;;15.90;97.20;;;;;;1694282;29;20246;-73
2022/10/06 07:04:49;;;;;;;5.53;3.88;;;15.90;97.20;;;;;;1694357;29;20215;-73
2022/10/06 07:05:41;;;;;;;4.07;3.67;;;16.00;97.20;;;;;;1694379;29;20251;-73
2022/10/06 07:06:31;;;;;;;6.03;4.45;;;16.00;97.20;;;;;;1694262;29;20200;-73
2022/10/06 07:07:23;;;;;;;6.50;4.80;;;16.00;97.20;;;;;;1694274;29;20206;-73
2022/10/06 07:08:15;;;;;;;4.57;3.53;;;16.00;97.20;;;;;;1694442;29;20454;-74
2022/10/06 07:09:08;;;;;;;5.03;3.58;;;16.00;97.20;;;;;;1694352;29;20227;-73
2022/10/06 07:09:58;;;;;;;4.85;4.10;;;16.10;97.20;;;;;;1694112;29;20211;-73
2022/10/06 07:10:50;;;;;;;5.00;3.77;;;16.10;97.20;;;;;;1694241;29;20228;-73
2022/10/06 07:11:41;;;;;;;7.18;3.70;;;16.10;97.20;;;;;;1694932;29;20211;-74
2022/10/06 07:12:33;;;;;;;8.70;3.90;;;16.10;97.20;;;;;;1694257;29;20235;-74
2022/10/06 07:13:23;;;;;;;4.60;3.97;;;16.10;97.20;;;;;;1694354;29;20204;-74
2022/10/06 07:14:15;;;;;;;4.40;4.07;;;16.10;97.20;;;;;;1694067;29;20214;-72
2022/10/06 07:25:42;;;;;;;6.55;3.95;;;16.40;97.20;;;;;;1687926;29;20203;-72
2022/10/06 07:26:33;;;;;;;7.10;4.28;;;16.40;97.20;;;;;;1687799;29;20205;-72
2022/10/06 07:27:25;;;;;;;6.20;4.00;;;16.40;97.20;;;;;;1687731;29;20204;-73
2022/10/06 07:28:16;;;;;;;5.00;4.57;;;16.40;97.20;;;;;;1687774;29;20216;-73
2022/10/06 07:29:08;;;;;;;5.50;3.97;;;16.40;97.20;;;;;;1693034;29;20199;-72
2022/10/06 07:29:58;;;;;;;5.43;4.60;;;16.40;97.20;;;;;;1693997;29;20238;-73
2022/10/06 07:30:51;;;;;;;5.47;4.27;;;16.50;97.20;;;;;;1693718;29;20390;-73
2022/10/06 07:31:42;;;;;;;7.18;4.55;;;16.50;97.20;;;;;;1694000;29;20208;-73
2022/10/06 07:32:34;;;;;;;5.88;4.30;;;16.50;97.20;;;;;;1694073;29;20206;-73
2022/10/06 07:33:27;;;;;;;6.25;4.38;;;16.50;97.20;;;;;;1694055;29;20200;-74
2022/10/06 07:34:18;;;;;;;5.85;4.40;;;16.50;97.20;;;;;;1694062;29;20205;-73
2022/10/06 07:35:11;;;;;;;7.47;4.40;;;16.50;97.20;;;;;;1694162;29;20218;-72
2022/10/06 07:36:03;;;;;;;7.50;4.35;;;16.50;97.20;;;;;;1694058;29;20250;-73
2022/10/06 07:36:53;;;;;;;4.93;3.80;;;16.50;97.20;;;;;;1694122;29;20204;-75
2022/10/06 07:37:45;;;;;;;8.13;4.87;;;16.60;97.20;;;;;;1694100;29;20207;-72
2022/10/06 07:38:38;;;;;;;5.35;4.00;;;16.60;97.20;;;;;;1694058;29;20208;-72
2022/10/06 07:39:30;;;;;;;4.85;4.18;;;16.60;97.20;;;;;;1694061;29;20203;-75
2022/10/06 07:40:21;;;;;;;4.35;3.70;;;16.60;97.20;;;;;;1693839;29;20208;-75
2022/10/06 07:41:13;;;;;;;3.93;3.53;;;16.60;97.20;;;;;;1694100;29;20231;-72
2022/10/06 07:42:05;;;;;;;9.05;4.10;;;16.60;97.20;;;;;;1694165;29;20226;-72
2022/10/06 07:42:57;;;;;;;7.15;4.40;;;16.60;97.20;;;;;;1694179;29;20202;-72
2022/10/06 07:43:48;;;;;;;7.20;3.92;;;16.70;97.20;;;;;;1694201;29;20787;-72
2022/10/06 07:44:40;;;;;;;4.10;3.20;;;16.70;97.20;;;;;;1694200;29;20573;-72
2022/10/06 07:45:40;;;;;;;4.80;3.15;;;16.70;97.20;;;;;;1693899;29;20232;-72
2022/10/06 07:46:32;;;;;;;3.55;2.97;;;16.70;97.20;;;;;;1694260;29;20192;-72
2022/10/06 07:47:23;;;;;;;4.22;3.25;;;16.70;97.20;;;;;;1694156;29;20204;-72
2022/10/06 07:48:17;;;;;;;4.90;3.10;;;16.70;97.20;;;;;;1694168;29;20251;-73
2022/10/06 07:49:08;;;;;;;3.85;2.97;;;16.70;97.20;;;;;;1694484;29;20386;-73
2022/10/06 07:50:00;;;;;;;3.23;2.87;;;16.70;97.20;;;;;;1693934;29;20204;-73
2022/10/06 07:50:52;;;;;;;4.60;2.90;;;16.80;97.20;;;;;;1691188;29;20479;-73
2022/10/06 07:51:45;;;;;;;4.82;3.13;;;16.80;97.20;;;;;;1688891;29;20215;-73
2022/10/06 07:52:38;;;;;;;3.90;2.80;;;16.80;97.20;;;;;;1693689;29;20222;-74
2022/10/06 07:53:34;;;;;;;6.13;3.30;;;16.80;97.20;;;;;;1694291;29;20284;-73
2022/10/06 07:54:25;;;;;;;4.07;3.10;;;16.80;97.20;;;;;;1697777;29;20295;-73
2022/10/06 07:55:17;;;;;;;4.68;2.95;;;16.80;97.20;;;;;;1700639;29;20210;-74
2022/10/06 07:56:10;;;;;;;3.72;2.95;;;16.80;97.20;;;;;;1694408;29;20208;-73
2022/10/06 07:57:01;;;;;;;3.40;2.45;;;16.80;97.20;;;;;;1700125;29;20207;-74
2022/10/06 07:57:52;;;;;;;5.63;2.45;;;16.80;97.20;;;;;;1700712;29;20211;-74
2022/10/06 07:58:44;;;;;;;5.63;2.73;;;16.80;97.20;;;;;;1694922;29;20218;-74
2022/10/06 07:59:35;;;;;;;2.85;2.38;;;16.90;97.20;;;;;;1694432;29;20207;-74
2022/10/06 08:00:26;;;;;;;3.75;2.55;;;16.90;97.20;;;;;;1693806;29;20222;-74
2022/10/06 08:01:19;;;;;;;2.70;2.30;;;16.90;97.20;;;;;;1694160;29;20203;-74
2022/10/06 08:02:10;;;;;;;4.82;2.78;;;16.90;97.20;;;;;;1695159;29;20533;-74
2022/10/06 08:03:02;;;;;;;6.47;2.60;;;16.90;97.20;;;;;;1695339;29;20203;-74
2022/10/06 08:03:53;;;;;;;7.03;2.42;;;16.90;97.20;;;;;;1695737;29;20219;-74
2022/10/06 08:04:45;;;;;;;5.03;2.87;;;17.00;97.20;;;;;;1695489;29;20294;-74
2022/10/06 08:05:37;;;;;;;3.00;2.53;;;17.00;97.20;;;;;;1695479;29;20248;-74
2022/10/06 08:06:30;;;;;;;4.00;2.63;;;17.00;97.20;;;;;;1695563;29;20207;-75
2022/10/06 08:07:21;;;;;;;3.95;2.85;;;17.00;97.20;;;;;;1695454;29;20694;-74
2022/10/06 08:08:14;;;;;;;5.13;2.60;;;17.00;97.20;;;;;;1695554;29;20570;-74
2022/10/06 08:09:06;;;;;;;4.72;2.60;;;17.00;97.20;;;;;;1695558;29;20211;-74
2022/10/06 08:09:57;;;;;;;3.97;2.70;;;17.10;97.20;;;;;;1695303;29;20607;-74
2022/10/06 08:10:53;;;;;;;3.70;2.70;;;17.10;97.20;;;;;;1695324;29;20657;-74
2022/10/06 08:11:46;;;;;;;3.25;2.95;;;17.10;97.20;;;;;;1695497;29;20215;-74
2022/10/06 08:12:39;;;;;;;5.32;2.95;;;17.10;97.20;;;;;;1695458;29;20199;-73
2022/10/06 08:13:31;;;;;;;4.05;2.50;;;17.10;97.20;;;;;;1695450;29;20687;-74
2022/10/06 08:14:23;;;;;;;3.78;2.40;;;17.20;97.20;;;;;;1695796;29;20211;-74
2022/10/06 08:15:13;;;;;;;5.97;2.45;;;17.20;97.20;;;;;;1695454;29;20267;-74
2022/10/06 08:16:06;;;;;;;3.93;2.80;;;17.20;97.20;;;;;;1695527;29;20208;-74
2022/10/06 08:16:57;;;;;;;2.80;2.03;;;17.20;97.20;;;;;;1695997;29;20212;-74
2022/10/06 08:17:52;;;;;;;2.65;2.30;;;17.20;97.20;;;;;;1695746;29;20204;-74
2022/10/06 08:18:48;;;;;;;3.22;2.10;;;17.20;97.20;;;;;;1696136;29;20745;-73
2022/10/06 08:19:40;;;;;;;4.55;2.90;;;17.20;97.20;;;;;;1695405;29;20234;-74
2022/10/06 08:20:30;;;;;;;5.35;2.95;;;17.20;97.20;;;;;;1695130;29;20219;-74
2022/10/06 08:21:24;;;;;;;2.93;2.30;;;17.20;97.20;;;;;;1695374;29;20658;-74
2022/10/06 08:22:18;;;;;;;2.60;2.30;;;17.20;97.20;;;;;;1695361;29;20641;-75
2022/10/06 08:23:13;;;;;;;2.85;2.28;;;17.30;97.20;;;;;;1695326;29;20211;-74
2022/10/06 08:24:04;;;;;;;3.90;1.90;;;17.30;97.20;;;;;;1695478;29;20239;-74
2022/10/06 08:24:56;;;;;;;6.10;2.95;;;17.30;97.20;;;;;;1695358;29;20207;-74
2022/10/06 08:25:52;;;;;;;3.00;2.22;;;17.20;97.20;;;;;;1695412;29;20212;-74
2022/10/06 08:26:43;;;;;;;6.20;2.45;;;17.30;97.20;;;;;;1695345;29;20721;-74
2022/10/06 08:27:36;;;;;;;4.30;2.13;;;17.30;97.20;;;;;;1695290;29;20681;-74
2022/10/06 08:28:29;;;;;;;7.20;1.92;;;17.20;97.20;;;;;;1695326;29;20274;-74
2022/10/06 08:29:21;;;;;;;5.70;1.88;;;17.30;97.20;;;;;;1695269;29;20232;-74
2022/10/06 08:30:12;;;;;;;2.88;2.05;;;17.20;97.20;;;;;;1695012;29;20215;-74
2022/10/06 08:31:05;;;;;;;3.45;1.95;;;17.20;97.20;;;;;;1695358;29;20211;-74
2022/10/06 08:31:58;;;;;;;10.07;2.40;;;17.20;97.20;;;;;;1695311;29;20210;-74
2022/10/06 08:32:49;;;;;;;3.70;2.00;;;17.20;97.20;;;;;;1695180;29;20208;-74
2022/10/06 08:33:41;;;;;;;2.28;1.90;;;17.30;97.20;;;;;;1695216;29;20239;-75
2022/10/06 08:34:35;;;;;;;5.43;2.10;;;17.30;97.20;;;;;;1694969;29;20223;-75
2022/10/06 08:35:26;;;;;;;3.40;2.35;;;17.30;97.20;;;;;;1695115;29;20208;-75
2022/10/06 08:36:19;;;;;;;2.78;1.90;;;17.30;97.20;;;;;;1695260;29;20210;-75
2022/10/06 08:37:10;;;;;;;4.28;2.10;;;17.30;97.20;;;;;;1695114;29;20207;-75
2022/10/06 08:38:03;;;;;;;4.60;2.03;;;17.30;97.20;;;;;;1695287;29;20208;-75
2022/10/06 08:38:54;;;;;;;1.90;1.70;;;17.40;97.20;;;;;;1695214;29;20204;-75
2022/10/06 08:39:46;;;;;;;5.80;2.00;;;17.40;97.20;;;;;;1694962;29;20270;-75
2022/10/06 08:40:36;;;;;;;4.55;2.10;;;17.40;97.20;;;;;;1695169;29;20228;-75
2022/10/06 08:41:38;;;;;;;2.43;1.90;;;17.40;97.20;;;;;;1695163;29;20210;-75
2022/10/06 08:42:37;;;;;;;2.70;1.95;;;17.40;97.20;;;;;;1695056;29;20223;-75
2022/10/06 08:43:31;;;;;;;4.32;1.83;;;17.40;97.20;;;;;;1695246;29;20224;-75
2022/10/06 08:44:31;;;;;;;3.15;1.75;;;17.50;97.20;;;;;;1695242;29;20203;-75
2022/10/06 08:45:28;;;;;;;2.58;2.33;;;17.50;97.20;;;;;;1695243;29;20252;-75
2022/10/06 08:46:21;;;;;;;2.25;1.80;;;17.50;97.20;;;;;;1695212;29;20208;-75
2022/10/06 08:47:17;;;;;;;12.05;2.88;;;17.50;97.20;;;;;;1695028;29;20207;-75
2022/10/06 08:48:12;;;;;;;5.38;2.47;;;17.50;97.20;;;;;;1695094;29;20552;-75
2022/10/06 08:49:05;;;;;;;4.20;2.47;;;17.60;97.20;;;;;;1695200;29;20204;-75
2022/10/06 08:49:56;;;;;;;2.67;2.30;;;17.60;97.20;;;;;;1694863;29;20235;-75
2022/10/06 08:51:05;;;;;;;4.78;1.73;;;17.60;97.20;;;;;;1694832;29;20227;-75
2022/10/06 08:52:09;;;;;;;3.28;1.75;;;17.60;97.20;;;;;;1688687;29;20209;-74
2022/10/06 08:53:10;;;;;;;2.13;1.60;;;17.70;97.20;;;;;;1688707;29;20208;-75
2022/10/06 08:54:07;;;;;;;4.70;1.95;;;17.70;97.20;;;;;;1688760;29;20209;-75
2022/10/06 08:55:07;;;;;;;2.92;1.50;;;17.70;97.20;;;;;;1688626;29;20212;-75
2022/10/06 08:56:04;;;;;;;3.25;1.38;;;17.70;97.20;;;;;;1688731;29;20209;-75
2022/10/06 08:57:05;;;;;;;2.60;1.63;;;17.70;97.20;;;;;;1688659;29;20200;-75
2022/10/06 08:58:27;;;;;;;4.40;1.98;;;17.70;97.20;;;;;;1688571;29;20368;-75
2022/10/06 08:59:18;;;;;;;3.22;1.65;;;17.70;97.20;;;;;;1688552;29;20212;-75
2022/10/06 09:00:13;;;;;;;4.90;2.00;;;17.70;97.20;;;;;;1689125;29;20629;-74
2022/10/06 09:01:14;;;;;;;2.47;1.45;;;17.70;97.20;;;;;;1695106;29;20212;-75
2022/10/06 09:02:23;;;;;;;4.82;2.15;;;17.80;97.20;;;;;;1695035;29;20287;-75
2022/10/06 09:03:22;;;;;;;2.95;1.50;;;17.80;97.20;;;;;;1695111;29;20211;-74
2022/10/06 09:04:25;;;;;;;3.25;1.30;;;17.80;97.20;;;;;;1695084;29;20204;-74
2022/10/06 09:05:24;;;;;;;2.53;1.20;;;17.80;97.20;;;;;;1695101;29;20204;-74
2022/10/06 09:06:28;;;;;;;2.13;1.45;;;17.80;97.20;;;;;;1694879;29;20294;-74
2022/10/06 09:07:26;;;;;;;3.97;1.33;;;17.80;97.20;;;;;;1694817;29;20211;-74
2022/10/06 09:08:34;;;;;;;2.15;1.30;;;17.80;97.20;;;;;;1694856;29;20287;-74
2022/10/06 09:09:42;;;;;;;2.65;1.20;;;17.80;97.20;;;;;;1695074;29;20215;-75
2022/10/06 09:10:43;;;;;;;3.45;1.48;;;17.90;97.20;;;;;;1694787;29;20883;-74
2022/10/06 09:11:45;;;;;;;5.00;0.93;;;17.90;97.20;;;;;;1694904;29;20215;-74
2022/10/06 09:12:43;;;;;;;3.15;1.88;;;17.90;97.20;;;;;;1694969;29;20231;-74
2022/10/06 09:13:38;;;;;;;4.28;1.45;;;17.90;97.20;;;;;;1694162;29;20561;-74
2022/10/06 09:14:38;;;;;;;2.08;1.30;;;18.00;97.20;;;;;;1694876;29;20196;-74
2022/10/06 09:15:33;;;;;;;1.95;1.20;;;18.00;97.20;;;;;;1694982;29;20212;-74
2022/10/06 09:16:29;;;;;;;1.38;1.02;;;18.00;97.20;;;;;;1694993;29;20211;-75
2022/10/06 09:17:26;;;;;;;5.55;1.60;;;18.00;97.20;;;;;;1694741;29;20219;-74
2022/10/06 09:18:24;;;;;;;2.50;1.17;;;18.10;97.20;;;;;;1695008;29;20204;-75
2022/10/06 09:19:21;;;;;;;3.25;1.73;;;18.10;97.20;;;;;;1695116;29;20307;-74
2022/10/06 09:20:19;;;;;;;5.32;2.17;;;18.10;97.20;;;;;;1694644;29;20622;-74
2022/10/06 09:21:14;;;;;;;3.25;1.50;;;18.10;97.20;;;;;;1694917;29;20204;-74
2022/10/06 09:22:15;;;;;;;2.20;1.25;;;18.20;97.20;;;;;;1695009;29;20208;-74
2022/10/06 09:23:14;;;;;;;3.58;1.65;;;18.20;97.20;;;;;;1694280;29;20219;-74
2022/10/06 09:24:13;;;;;;;4.70;1.50;;;18.30;97.20;;;;;;1693912;29;20252;-74
2022/10/06 09:25:15;;;;;;;7.05;1.77;;;18.30;97.20;;;;;;1694536;29;20212;-74
2022/10/06 09:26:11;;;;;;;4.95;1.52;;;18.40;97.20;;;;;;1694906;29;20208;-74
2022/10/06 09:27:16;;;;;;;2.03;1.10;;;18.40;97.20;;;;;;1694939;29;20291;-74
2022/10/06 09:28:11;;;;;;;2.90;1.15;;;18.50;97.20;;;;;;1694902;29;20239;-74
2022/10/06 09:29:03;;;;;;;4.40;1.63;;;18.60;97.20;;;;;;1695029;29;20667;-74
2022/10/06 09:29:54;;;;;;;2.70;1.67;;;18.60;97.20;;;;;;1694625;29;20204;-74
2022/10/06 09:30:46;;;;;;;2.90;1.17;;;18.70;97.20;;;;;;1694784;29;20238;-74
2022/10/06 09:31:39;;;;;;;3.65;1.55;;;18.70;97.20;;;;;;1694833;29;20208;-74
2022/10/06 09:32:32;;;;;;;4.57;1.45;;;18.80;97.20;;;;;;1694808;29;20208;-74
2022/10/06 09:33:24;;;;;;;2.20;1.30;;;18.90;97.20;;;;;;1694873;29;20645;-74
2022/10/06 09:34:23;;;;;;;2.35;1.10;;;18.90;97.20;;;;;;1694925;29;20659;-74
2022/10/06 09:35:19;;;;;;;2.00;1.13;;;19.00;97.20;;;;;;1694999;29;20819;-74
2022/10/06 09:36:11;;;;;;;4.15;1.67;;;19.10;97.20;;;;;;1694832;29;20204;-74
2022/10/06 09:37:06;;;;;;;3.92;1.25;;;19.10;97.20;;;;;;1694863;29;20203;-74
2022/10/06 09:38:02;;;;;;;2.72;1.00;;;19.10;97.20;;;;;;1694925;29;20204;-74
2022/10/06 09:38:54;;;;;;;2.58;1.30;;;19.20;97.20;;;;;;1694876;29;20670;-75
2022/10/06 09:39:49;;;;;;;3.20;1.20;;;19.30;97.20;;;;;;1694468;29;20274;-74
2022/10/06 09:40:48;;;;;;;2.85;1.60;;;19.40;97.20;;;;;;1694373;29;20220;-74
2022/10/06 09:41:43;;;;;;;2.75;1.20;;;19.50;97.20;;;;;;1694825;29;20204;-74
2022/10/06 09:42:34;;;;;;;2.78;1.10;;;19.60;97.20;;;;;;1694787;29;20208;-74
2022/10/06 09:43:28;;;;;;;3.63;1.55;;;19.70;97.20;;;;;;1694805;29;20204;-74
2022/10/06 09:44:23;;;;;;;5.32;1.35;;;19.80;97.20;;;;;;1694861;29;20663;-74
2022/10/06 09:45:25;;;;;;;6.45;1.70;;;19.90;97.20;;;;;;1694749;29;20208;-74
2022/10/06 09:46:20;;;;;;;6.25;1.50;;;20.00;97.20;;;;;;1694898;29;20212;-74
2022/10/06 09:47:35;;;;;;;4.03;1.60;;;20.10;97.20;;;;;;1694648;29;20251;-74
2022/10/06 09:48:27;;;;;;;2.55;1.25;;;20.30;97.20;;;;;;1694853;29;20576;-75
2022/10/06 09:49:20;;;;;;;5.13;1.25;;;20.30;97.20;;;;;;1694828;29;20214;-74
2022/10/06 09:50:16;;;;;;;3.05;1.25;;;20.50;97.20;;;;;;1694508;29;20255;-74